sensor_id;sensor_type;location;lat;lon;timestamp;pressure;altitude;pressure_sealevel;temperature;humidity
9257;BME280;4665;51.368;6.782;2023-03-03T00:02:14;101975.09;;;0.37;100.00
9257;BME280;4665;51.368;6.782;2023-03-03T00:04:40;102000.69;;;0.53;100.00
9257;BME280;4665;51.368;6.782;2023-03-03T00:07:05;101998.91;;;0.53;100.00
9257;BME280;4665;51.368;6.782;2023-03-03T00:09:32;101992.47;;;0.40;100.00
9257;BME280;4665;51.368;6.782;2023-03-03T00:11:59;101992.38;;;0.41;100.00
9257;BME280;4665;51.368;6.782;2023-03-03T00:14:30;101982.25;;;0.32;100.00
9257;BME280;4665;51.368;6.782;2023-03-03T00:16:57;101999.34;;;0.43;100.00
9257;BME280;4665;51.368;6.782;2023-03-03T00:19:24;101979.44;;;0.37;100.00
9257;BME280;4665;51.368;6.782;2023-03-03T00:21:50;102006.25;;;0.45;100.00
9257;BME280;4665;51.368;6.782;2023-03-03T00:24:24;102005.13;;;0.51;100.00
9257;BME280;4665;51.368;6.782;2023-03-03T00:27:00;102018.34;;;0.49;100.00
9257;BME280;4665;51.368;6.782;2023-03-03T00:29:28;102019.19;;;0.50;100.00
9257;BME280;4665;51.368;6.782;2023-03-03T00:31:59;102010.81;;;0.40;100.00
9257;BME280;4665;51.368;6.782;2023-03-03T00:34:32;102021.94;;;0.47;100.00
9257;BME280;4665;51.368;6.782;2023-03-03T00:36:58;102017.75;;;0.41;100.00
9257;BME280;4665;51.368;6.782;2023-03-03T00:39:37;102025.41;;;0.47;100.00
9257;BME280;4665;51.368;6.782;2023-03-03T00:42:14;102027.94;;;0.49;100.00
9257;BME280;4665;51.368;6.782;2023-03-03T00:44:47;102029.72;;;0.48;100.00
9257;BME280;4665;51.368;6.782;2023-03-03T00:49:54;102029.00;;;0.45;100.00
9257;BME280;4665;51.368;6.782;2023-03-03T00:52:21;102032.50;;;0.44;100.00
9257;BME280;4665;51.368;6.782;2023-03-03T00:54:47;102030.75;;;0.44;100.00
9257;BME280;4665;51.368;6.782;2023-03-03T00:57:13;102026.44;;;0.43;100.00
9257;BME280;4665;51.368;6.782;2023-03-03T00:59:39;102026.28;;;0.46;100.00
9257;BME280;4665;51.368;6.782;2023-03-03T01:02:04;102034.91;;;0.50;100.00
9257;BME280;4665;51.368;6.782;2023-03-03T01:04:30;102024.59;;;0.45;100.00
9257;BME280;4665;51.368;6.782;2023-03-03T01:06:55;102029.81;;;0.47;100.00
9257;BME280;4665;51.368;6.782;2023-03-03T01:09:21;102037.38;;;0.54;100.00
9257;BME280;4665;51.368;6.782;2023-03-03T01:11:48;102043.31;;;0.58;100.00
9257;BME280;4665;51.368;6.782;2023-03-03T01:14:13;102022.03;;;0.44;100.00
9257;BME280;4665;51.368;6.782;2023-03-03T01:16:39;102011.53;;;0.44;100.00
9257;BME280;4665;51.368;6.782;2023-03-03T01:19:06;102014.16;;;0.44;100.00
9257;BME280;4665;51.368;6.782;2023-03-03T01:21:31;102021.94;;;0.47;100.00
9257;BME280;4665;51.368;6.782;2023-03-03T01:23:57;102014.84;;;0.49;100.00
9257;BME280;4665;51.368;6.782;2023-03-03T01:26:22;102010.28;;;0.54;100.00
9257;BME280;4665;51.368;6.782;2023-03-03T01:28:48;102016.44;;;0.53;100.00
9257;BME280;4665;51.368;6.782;2023-03-03T01:31:13;102017.19;;;0.56;100.00
9257;BME280;4665;51.368;6.782;2023-03-03T01:33:38;102014.47;;;0.58;100.00
9257;BME280;4665;51.368;6.782;2023-03-03T01:36:04;102024.72;;;0.64;100.00
9257;BME280;4665;51.368;6.782;2023-03-03T01:38:30;102043.66;;;0.72;100.00
9257;BME280;4665;51.368;6.782;2023-03-03T01:40:58;102021.44;;;0.59;100.00
9257;BME280;4665;51.368;6.782;2023-03-03T01:43:28;102029.00;;;0.67;100.00
9257;BME280;4665;51.368;6.782;2023-03-03T01:48:33;102041.03;;;0.72;100.00
9257;BME280;4665;51.368;6.782;2023-03-03T01:51:22;102039.31;;;0.71;100.00
9257;BME280;4665;51.368;6.782;2023-03-03T01:53:52;102033.28;;;0.69;100.00
9257;BME280;4665;51.368;6.782;2023-03-03T01:56:19;102035.91;;;0.69;100.00
9257;BME280;4665;51.368;6.782;2023-03-03T01:58:49;102040.25;;;0.70;100.00
9257;BME280;4665;51.368;6.782;2023-03-03T02:01:24;102032.25;;;0.73;100.00
9257;BME280;4665;51.368;6.782;2023-03-03T02:03:50;102032.38;;;0.70;100.00
9257;BME280;4665;51.368;6.782;2023-03-03T02:06:20;102035.72;;;0.74;100.00
9257;BME280;4665;51.368;6.782;2023-03-03T02:11:46;102018.25;;;0.51;100.00
9257;BME280;4665;51.368;6.782;2023-03-03T02:14:13;102014.84;;;0.49;100.00
9257;BME280;4665;51.368;6.782;2023-03-03T02:16:39;102022.41;;;0.56;100.00
9257;BME280;4665;51.368;6.782;2023-03-03T02:19:12;102025.03;;;0.56;100.00
9257;BME280;4665;51.368;6.782;2023-03-03T02:21:42;102003.75;;;0.42;100.00
9257;BME280;4665;51.368;6.782;2023-03-03T02:24:26;102026.69;;;0.59;100.00
9257;BME280;4665;51.368;6.782;2023-03-03T02:26:53;102019.66;;;0.59;100.00
9257;BME280;4665;51.368;6.782;2023-03-03T02:29:18;102028.38;;;0.60;100.00
9257;BME280;4665;51.368;6.782;2023-03-03T02:31:44;102021.66;;;0.53;100.00
9257;BME280;4665;51.368;6.782;2023-03-03T02:34:09;102032.06;;;0.56;100.00
9257;BME280;4665;51.368;6.782;2023-03-03T02:36:36;102030.34;;;0.55;100.00
9257;BME280;4665;51.368;6.782;2023-03-03T02:39:20;102033.88;;;0.54;100.00
9257;BME280;4665;51.368;6.782;2023-03-03T02:44:40;102045.19;;;0.56;100.00
9257;BME280;4665;51.368;6.782;2023-03-03T02:47:06;102044.25;;;0.57;100.00
9257;BME280;4665;51.368;6.782;2023-03-03T02:49:34;102043.28;;;0.59;100.00
9257;BME280;4665;51.368;6.782;2023-03-03T02:52:02;102050.34;;;0.57;100.00
9257;BME280;4665;51.368;6.782;2023-03-03T02:54:29;102052.34;;;0.51;100.00
9257;BME280;4665;51.368;6.782;2023-03-03T02:56:58;102065.41;;;0.52;100.00
9257;BME280;4665;51.368;6.782;2023-03-03T02:59:24;102049.19;;;0.43;100.00
9257;BME280;4665;51.368;6.782;2023-03-03T03:01:51;102049.19;;;0.43;100.00
9257;BME280;4665;51.368;6.782;2023-03-03T03:04:22;102036.47;;;0.32;100.00
9257;BME280;4665;51.368;6.782;2023-03-03T03:06:48;102052.81;;;0.38;100.00
9257;BME280;4665;51.368;6.782;2023-03-03T03:09:16;102051.88;;;0.39;100.00
9257;BME280;4665;51.368;6.782;2023-03-03T03:11:41;102040.63;;;0.37;100.00
9257;BME280;4665;51.368;6.782;2023-03-03T03:14:08;102058.72;;;0.44;100.00
9257;BME280;4665;51.368;6.782;2023-03-03T03:16:35;102039.16;;;0.30;100.00
9257;BME280;4665;51.368;6.782;2023-03-03T03:19:01;102054.41;;;0.43;100.00
9257;BME280;4665;51.368;6.782;2023-03-03T03:21:27;102052.19;;;0.32;100.00
9257;BME280;4665;51.368;6.782;2023-03-03T03:23:53;102059.25;;;0.30;100.00
9257;BME280;4665;51.368;6.782;2023-03-03T03:26:18;102054.66;;;0.13;100.00
9257;BME280;4665;51.368;6.782;2023-03-03T03:28:45;102055.66;;;0.09;100.00
9257;BME280;4665;51.368;6.782;2023-03-03T03:31:11;102051.50;;;0.03;100.00
9257;BME280;4665;51.368;6.782;2023-03-03T03:33:36;102065.13;;;0.13;100.00
9257;BME280;4665;51.368;6.782;2023-03-03T03:36:03;102060.09;;;0.07;100.00
9257;BME280;4665;51.368;6.782;2023-03-03T03:38:31;102051.56;;;0.02;100.00
9257;BME280;4665;51.368;6.782;2023-03-03T03:40:58;102066.25;;;0.06;100.00
9257;BME280;4665;51.368;6.782;2023-03-03T03:43:24;102056.91;;;-0.02;100.00
9257;BME280;4665;51.368;6.782;2023-03-03T03:45:49;102076.47;;;0.13;100.00
9257;BME280;4665;51.368;6.782;2023-03-03T03:48:15;102043.00;;;-0.04;100.00
9257;BME280;4665;51.368;6.782;2023-03-03T03:50:41;102046.47;;;-0.03;100.00
9257;BME280;4665;51.368;6.782;2023-03-03T03:53:08;102054.28;;;-0.02;100.00
9257;BME280;4665;51.368;6.782;2023-03-03T03:55:33;102072.31;;;0.08;100.00
9257;BME280;4665;51.368;6.782;2023-03-03T03:57:59;102069.56;;;0.11;100.00
9257;BME280;4665;51.368;6.782;2023-03-03T04:00:24;102041.16;;;0.00;100.00
9257;BME280;4665;51.368;6.782;2023-03-03T04:02:50;102065.81;;;0.18;100.00
9257;BME280;4665;51.368;6.782;2023-03-03T04:05:16;102070.97;;;0.21;100.00
9257;BME280;4665;51.368;6.782;2023-03-03T04:07:41;102052.94;;;0.12;100.00
9257;BME280;4665;51.368;6.782;2023-03-03T04:10:07;102053.72;;;0.14;100.00
9257;BME280;4665;51.368;6.782;2023-03-03T04:12:33;102056.25;;;0.17;100.00
9257;BME280;4665;51.368;6.782;2023-03-03T04:15:08;102082.03;;;0.28;100.00
9257;BME280;4665;51.368;6.782;2023-03-03T04:17:34;102083.00;;;0.25;100.00
9257;BME280;4665;51.368;6.782;2023-03-03T04:19:59;102091.00;;;0.22;100.00
9257;BME280;4665;51.368;6.782;2023-03-03T04:22:26;102079.16;;;0.12;100.00
9257;BME280;4665;51.368;6.782;2023-03-03T04:24:52;102086.22;;;0.10;100.00
9257;BME280;4665;51.368;6.782;2023-03-03T04:27:17;102065.47;;;0.04;100.00
9257;BME280;4665;51.368;6.782;2023-03-03T04:29:43;102076.78;;;0.04;100.00
9257;BME280;4665;51.368;6.782;2023-03-03T04:32:08;102071.78;;;-0.02;100.00
9257;BME280;4665;51.368;6.782;2023-03-03T04:34:34;102066.59;;;-0.04;100.00
9257;BME280;4665;51.368;6.782;2023-03-03T04:36:59;102062.28;;;-0.05;100.00
9257;BME280;4665;51.368;6.782;2023-03-03T04:39:26;102054.84;;;-0.17;100.00
9257;BME280;4665;51.368;6.782;2023-03-03T04:41:52;102077.03;;;-0.02;100.00
9257;BME280;4665;51.368;6.782;2023-03-03T04:44:17;102072.63;;;-0.02;100.00
9257;BME280;4665;51.368;6.782;2023-03-03T04:46:43;102085.63;;;0.02;100.00
9257;BME280;4665;51.368;6.782;2023-03-03T04:49:08;102064.97;;;-0.08;100.00
9257;BME280;4665;51.368;6.782;2023-03-03T04:51:34;102076.06;;;0.01;100.00
9257;BME280;4665;51.368;6.782;2023-03-03T04:53:59;102097.91;;;-0.01;100.00
9257;BME280;4665;51.368;6.782;2023-03-03T04:56:25;102066.31;;;-0.21;100.00
9257;BME280;4665;51.368;6.782;2023-03-03T04:58:50;102093.97;;;-0.12;100.00
9257;BME280;4665;51.368;6.782;2023-03-03T05:01:16;102072.63;;;-0.27;100.00
9257;BME280;4665;51.368;6.782;2023-03-03T05:03:43;102088.88;;;-0.17;100.00
9257;BME280;4665;51.368;6.782;2023-03-03T05:06:09;102101.13;;;-0.17;100.00
9257;BME280;4665;51.368;6.782;2023-03-03T05:08:34;102097.88;;;-0.24;100.00
9257;BME280;4665;51.368;6.782;2023-03-03T05:10:59;102082.34;;;-0.30;100.00
9257;BME280;4665;51.368;6.782;2023-03-03T05:13:25;102076.34;;;-0.32;100.00
9257;BME280;4665;51.368;6.782;2023-03-03T05:15:55;102097.75;;;-0.21;100.00
9257;BME280;4665;51.368;6.782;2023-03-03T05:18:24;102085.78;;;-0.28;100.00
9257;BME280;4665;51.368;6.782;2023-03-03T05:20:50;102092.31;;;-0.15;100.00
9257;BME280;4665;51.368;6.782;2023-03-03T05:23:17;102091.41;;;-0.14;100.00
9257;BME280;4665;51.368;6.782;2023-03-03T05:25:42;102097.34;;;-0.09;100.00
9257;BME280;4665;51.368;6.782;2023-03-03T05:28:09;102082.75;;;-0.16;100.00
9257;BME280;4665;51.368;6.782;2023-03-03T05:30:35;102096.53;;;-0.11;100.00
9257;BME280;4665;51.368;6.782;2023-03-03T05:33:01;102071.56;;;-0.21;100.00
9257;BME280;4665;51.368;6.782;2023-03-03T05:35:27;102073.31;;;-0.22;100.00
9257;BME280;4665;51.368;6.782;2023-03-03T05:37:53;102102.59;;;-0.09;100.00
9257;BME280;4665;51.368;6.782;2023-03-03T05:40:19;102087.19;;;-0.18;100.00
9257;BME280;4665;51.368;6.782;2023-03-03T05:42:44;102084.72;;;-0.23;100.00
9257;BME280;4665;51.368;6.782;2023-03-03T05:45:10;102076.06;;;-0.25;100.00
9257;BME280;4665;51.368;6.782;2023-03-03T05:47:36;102087.38;;;-0.24;100.00
9257;BME280;4665;51.368;6.782;2023-03-03T05:50:02;102074.50;;;-0.30;100.00
9257;BME280;4665;51.368;6.782;2023-03-03T05:52:28;102077.22;;;-0.33;100.00
9257;BME280;4665;51.368;6.782;2023-03-03T05:54:53;102084.19;;;-0.32;100.00
9257;BME280;4665;51.368;6.782;2023-03-03T05:57:19;102091.03;;;-0.28;100.00
9257;BME280;4665;51.368;6.782;2023-03-03T05:59:44;102099.47;;;-0.20;100.00
9257;BME280;4665;51.368;6.782;2023-03-03T06:02:09;102091.78;;;-0.25;100.00
9257;BME280;4665;51.368;6.782;2023-03-03T06:04:35;102092.91;;;-0.32;100.00
9257;BME280;4665;51.368;6.782;2023-03-03T06:07:00;102096.34;;;-0.30;100.00
9257;BME280;4665;51.368;6.782;2023-03-03T06:09:26;102090.28;;;-0.32;100.00
9257;BME280;4665;51.368;6.782;2023-03-03T06:11:51;102099.69;;;-0.26;100.00
9257;BME280;4665;51.368;6.782;2023-03-03T06:14:18;102099.69;;;-0.26;100.00
9257;BME280;4665;51.368;6.782;2023-03-03T06:16:45;102110.06;;;-0.23;100.00
9257;BME280;4665;51.368;6.782;2023-03-03T06:19:11;102121.28;;;-0.19;100.00
9257;BME280;4665;51.368;6.782;2023-03-03T06:21:36;102109.44;;;-0.30;100.00
9257;BME280;4665;51.368;6.782;2023-03-03T06:24:02;102108.47;;;-0.27;100.00
9257;BME280;4665;51.368;6.782;2023-03-03T06:26:27;102133.53;;;-0.20;100.00
9257;BME280;4665;51.368;6.782;2023-03-03T06:28:53;102130.16;;;-0.24;100.00
9257;BME280;4665;51.368;6.782;2023-03-03T06:31:19;102146.44;;;-0.14;100.00
9257;BME280;4665;51.368;6.782;2023-03-03T06:33:45;102149.84;;;-0.12;100.00
9257;BME280;4665;51.368;6.782;2023-03-03T06:36:10;102125.78;;;-0.23;100.00
9257;BME280;4665;51.368;6.782;2023-03-03T06:38:36;102157.81;;;-0.15;100.00
9257;BME280;4665;51.368;6.782;2023-03-03T06:41:02;102129.41;;;-0.27;100.00
9257;BME280;4665;51.368;6.782;2023-03-03T06:43:31;102146.63;;;-0.20;100.00
9257;BME280;4665;51.368;6.782;2023-03-03T06:45:57;102163.09;;;-0.16;100.00
9257;BME280;4665;51.368;6.782;2023-03-03T06:48:22;102158.50;;;-0.10;100.00
9257;BME280;4665;51.368;6.782;2023-03-03T06:50:48;102157.66;;;-0.10;100.00
9257;BME280;4665;51.368;6.782;2023-03-03T06:53:15;102157.53;;;-0.07;100.00
9257;BME280;4665;51.368;6.782;2023-03-03T06:55:41;102170.41;;;0.01;100.00
9257;BME280;4665;51.368;6.782;2023-03-03T06:58:19;102159.00;;;0.02;100.00
9257;BME280;4665;51.368;6.782;2023-03-03T07:00:55;102150.41;;;-0.02;100.00
9257;BME280;4665;51.368;6.782;2023-03-03T07:03:26;102173.50;;;0.12;100.00
9257;BME280;4665;51.368;6.782;2023-03-03T07:05:54;102177.78;;;0.14;100.00
9257;BME280;4665;51.368;6.782;2023-03-03T07:08:21;102172.59;;;0.13;100.00
9257;BME280;4665;51.368;6.782;2023-03-03T07:10:48;102147.06;;;-0.07;100.00
9257;BME280;4665;51.368;6.782;2023-03-03T07:13:25;102155.53;;;0.01;100.00
9257;BME280;4665;51.368;6.782;2023-03-03T07:15:53;102166.84;;;0.02;100.00
9257;BME280;4665;51.368;6.782;2023-03-03T07:18:39;102173.72;;;0.06;100.00
9257;BME280;4665;51.368;6.782;2023-03-03T07:21:17;102160.97;;;-0.05;100.00
9257;BME280;4665;51.368;6.782;2023-03-03T07:23:44;102179.16;;;-0.01;100.00
9257;BME280;4665;51.368;6.782;2023-03-03T07:26:12;102181.72;;;0.01;100.00
9257;BME280;4665;51.368;6.782;2023-03-03T07:28:43;102191.13;;;0.07;100.00
9257;BME280;4665;51.368;6.782;2023-03-03T07:31:39;102170.25;;;0.05;100.00
9257;BME280;4665;51.368;6.782;2023-03-03T07:37:01;102184.19;;;0.06;100.00
9257;BME280;4665;51.368;6.782;2023-03-03T07:39:37;102185.00;;;0.08;100.00
9257;BME280;4665;51.368;6.782;2023-03-03T07:42:12;102199.59;;;0.15;100.00
9257;BME280;4665;51.368;6.782;2023-03-03T07:44:39;102197.94;;;0.12;100.00
9257;BME280;4665;51.368;6.782;2023-03-03T07:47:34;102186.84;;;0.04;100.00
9257;BME280;4665;51.368;6.782;2023-03-03T07:50:15;102202.25;;;0.13;100.00
9257;BME280;4665;51.368;6.782;2023-03-03T07:52:56;102213.50;;;0.17;100.00
9257;BME280;4665;51.368;6.782;2023-03-03T07:55:35;102214.16;;;0.24;100.00
9257;BME280;4665;51.368;6.782;2023-03-03T08:03:27;102221.78;;;0.30;100.00
9257;BME280;4665;51.368;6.782;2023-03-03T08:05:52;102229.63;;;0.31;100.00
9257;BME280;4665;51.368;6.782;2023-03-03T08:08:36;102220.91;;;0.31;100.00
9257;BME280;4665;51.368;6.782;2023-03-03T08:11:02;102226.03;;;0.34;100.00
9257;BME280;4665;51.368;6.782;2023-03-03T08:13:34;102231.16;;;0.37;100.00
9257;BME280;4665;51.368;6.782;2023-03-03T08:21:11;102239.63;;;0.45;100.00
9257;BME280;4665;51.368;6.782;2023-03-03T08:23:37;102229.13;;;0.45;100.00
9257;BME280;4665;51.368;6.782;2023-03-03T08:26:03;102230.91;;;0.45;100.00
9257;BME280;4665;51.368;6.782;2023-03-03T08:28:28;102227.47;;;0.43;100.00
9257;BME280;4665;51.368;6.782;2023-03-03T08:30:54;102228.16;;;0.48;100.00
9257;BME280;4665;51.368;6.782;2023-03-03T08:33:19;102227.25;;;0.49;100.00
9257;BME280;4665;51.368;6.782;2023-03-03T08:35:45;102245.25;;;0.59;100.00
9257;BME280;4665;51.368;6.782;2023-03-03T08:38:14;102247.69;;;0.64;100.00
9257;BME280;4665;51.368;6.782;2023-03-03T08:40:40;102245.03;;;0.66;100.00
9257;BME280;4665;51.368;6.782;2023-03-03T08:43:06;102239.94;;;0.61;100.00
9257;BME280;4665;51.368;6.782;2023-03-03T08:45:33;102263.22;;;0.70;100.00
9257;BME280;4665;51.368;6.782;2023-03-03T08:48:07;102238.34;;;0.57;100.00
9257;BME280;4665;51.368;6.782;2023-03-03T08:50:32;102254.50;;;0.70;100.00
9257;BME280;4665;51.368;6.782;2023-03-03T08:52:58;102250.00;;;0.73;100.00
9257;BME280;4665;51.368;6.782;2023-03-03T08:55:23;102255.91;;;0.78;100.00
9257;BME280;4665;51.368;6.782;2023-03-03T08:57:49;102241.56;;;0.65;100.00
9257;BME280;4665;51.368;6.782;2023-03-03T09:00:17;102239.09;;;0.60;100.00
9257;BME280;4665;51.368;6.782;2023-03-03T09:02:43;102245.19;;;0.61;100.00
9257;BME280;4665;51.368;6.782;2023-03-03T09:05:09;102236.63;;;0.56;100.00
9257;BME280;4665;51.368;6.782;2023-03-03T09:07:35;102238.22;;;0.60;100.00
9257;BME280;4665;51.368;6.782;2023-03-03T09:10:00;102240.97;;;0.57;100.00
9257;BME280;4665;51.368;6.782;2023-03-03T09:12:31;102268.53;;;0.69;100.00
9257;BME280;4665;51.368;6.782;2023-03-03T09:14:59;102250.53;;;0.58;100.00
9257;BME280;4665;51.368;6.782;2023-03-03T09:17:36;102270.25;;;0.70;100.00
9257;BME280;4665;51.368;6.782;2023-03-03T09:25:53;102284.78;;;0.78;100.00
9257;BME280;4665;51.368;6.782;2023-03-03T09:28:30;102277.84;;;0.77;100.00
9257;BME280;4665;51.368;6.782;2023-03-03T09:30:59;102274.44;;;0.74;100.00
9257;BME280;4665;51.368;6.782;2023-03-03T09:38:51;102286.50;;;0.79;100.00
9257;BME280;4665;51.368;6.782;2023-03-03T09:54:50;102285.13;;;0.93;100.00
9257;BME280;4665;51.368;6.782;2023-03-03T09:57:26;102291.28;;;0.93;100.00
9257;BME280;4665;51.368;6.782;2023-03-03T10:02:33;102296.28;;;0.99;100.00
9257;BME280;4665;51.368;6.782;2023-03-03T10:05:16;102307.38;;;1.08;100.00
9257;BME280;4665;51.368;6.782;2023-03-03T10:08:08;102302.84;;;1.11;100.00
9257;BME280;4665;51.368;6.782;2023-03-03T10:10:55;102306.22;;;1.15;100.00
9257;BME280;4665;51.368;6.782;2023-03-03T10:23:07;102293.25;;;1.34;100.00
9257;BME280;4665;51.368;6.782;2023-03-03T10:25:39;102300.00;;;1.41;100.00
9257;BME280;4665;51.368;6.782;2023-03-03T10:28:57;102291.31;;;1.39;100.00
9257;BME280;4665;51.368;6.782;2023-03-03T10:51:17;102314.56;;;1.72;100.00
9257;BME280;4665;51.368;6.782;2023-03-03T11:13:32;102312.38;;;1.83;100.00
9257;BME280;4665;51.368;6.782;2023-03-03T11:24:46;102307.19;;;2.03;100.00
9257;BME280;4665;51.368;6.782;2023-03-03T11:29:51;102303.19;;;2.15;100.00
9257;BME280;4665;51.368;6.782;2023-03-03T11:33:00;102291.69;;;2.18;100.00
9257;BME280;4665;51.368;6.782;2023-03-03T11:35:56;102296.50;;;2.28;100.00
9257;BME280;4665;51.368;6.782;2023-03-03T11:44:17;102295.78;;;2.45;100.00
9257;BME280;4665;51.368;6.782;2023-03-03T11:47:05;102301.84;;;2.47;100.00
9257;BME280;4665;51.368;6.782;2023-03-03T11:49:59;102289.69;;;2.45;100.00
9257;BME280;4665;51.368;6.782;2023-03-03T11:53:39;102294.75;;;2.49;100.00
9257;BME280;4665;51.368;6.782;2023-03-03T11:55:38;102282.13;;;2.58;100.00
9257;BME280;4665;51.368;6.782;2023-03-03T11:58:31;102269.03;;;2.56;100.00
9257;BME280;4665;51.368;6.782;2023-03-03T12:01:01;102285.72;;;2.55;100.00
9257;BME280;4665;51.368;6.782;2023-03-03T12:03:39;102273.31;;;2.59;100.00
9257;BME280;4665;51.368;6.782;2023-03-03T12:11:24;102273.16;;;2.82;100.00
9257;BME280;4665;51.368;6.782;2023-03-03T12:16:55;102265.69;;;2.92;100.00
9257;BME280;4665;51.368;6.782;2023-03-03T12:22:30;102258.00;;;2.87;100.00
9257;BME280;4665;51.368;6.782;2023-03-03T12:28:02;102262.53;;;3.04;100.00
9257;BME280;4665;51.368;6.782;2023-03-03T12:41:50;102241.94;;;3.12;100.00
9257;BME280;4665;51.368;6.782;2023-03-03T12:47:14;102240.88;;;3.16;100.00
9257;BME280;4665;51.368;6.782;2023-03-03T12:55:23;102248.31;;;3.27;100.00
9257;BME280;4665;51.368;6.782;2023-03-03T13:03:06;102243.59;;;3.15;100.00
9257;BME280;4665;51.368;6.782;2023-03-03T13:14:21;102243.22;;;3.42;100.00
9257;BME280;4665;51.368;6.782;2023-03-03T13:17:21;102245.31;;;3.35;100.00
9257;BME280;4665;51.368;6.782;2023-03-03T13:19:57;102240.59;;;3.42;100.00
9257;BME280;4665;51.368;6.782;2023-03-03T13:22:41;102230.41;;;3.34;100.00
9257;BME280;4665;51.368;6.782;2023-03-03T13:25:33;102234.56;;;3.21;100.00
9257;BME280;4665;51.368;6.782;2023-03-03T13:28:25;102238.19;;;3.18;100.00
9257;BME280;4665;51.368;6.782;2023-03-03T13:31:00;102238.72;;;3.25;100.00
9257;BME280;4665;51.368;6.782;2023-03-03T13:33:33;102239.19;;;3.34;100.00
9257;BME280;4665;51.368;6.782;2023-03-03T13:36:07;102235.16;;;3.45;100.00
9257;BME280;4665;51.368;6.782;2023-03-03T13:38:42;102227.06;;;3.49;100.00
9257;BME280;4665;51.368;6.782;2023-03-03T14:02:40;102208.25;;;4.77;100.00
9257;BME280;4665;51.368;6.782;2023-03-03T14:07:51;102215.94;;;4.82;100.00
9257;BME280;4665;51.368;6.782;2023-03-03T14:10:24;102186.78;;;4.68;100.00
9257;BME280;4665;51.368;6.782;2023-03-03T14:12:57;102214.25;;;4.81;100.00
9257;BME280;4665;51.368;6.782;2023-03-03T14:15:31;102192.91;;;4.68;100.00
9257;BME280;4665;51.368;6.782;2023-03-03T14:20:59;102199.94;;;4.85;100.00
9257;BME280;4665;51.368;6.782;2023-03-03T14:26:47;102189.69;;;4.79;100.00
9257;BME280;4665;51.368;6.782;2023-03-03T14:31:50;102196.03;;;4.92;100.00
9257;BME280;4665;51.368;6.782;2023-03-03T14:36:49;102196.28;;;5.03;100.00
9257;BME280;4665;51.368;6.782;2023-03-03T14:39:35;102190.47;;;5.13;100.00
9257;BME280;4665;51.368;6.782;2023-03-03T14:42:09;102173.88;;;5.11;100.00
9257;BME280;4665;51.368;6.782;2023-03-03T14:44:49;102183.94;;;5.20;100.00
9257;BME280;4665;51.368;6.782;2023-03-03T14:47:25;102176.44;;;5.28;100.00
9257;BME280;4665;51.368;6.782;2023-03-03T14:49:52;102181.19;;;5.37;100.00
9257;BME280;4665;51.368;6.782;2023-03-03T14:52:32;102181.53;;;5.47;100.00
9257;BME280;4665;51.368;6.782;2023-03-03T14:55:00;102161.59;;;5.41;100.00
9257;BME280;4665;51.368;6.782;2023-03-03T15:03:17;102172.22;;;5.56;100.00
9257;BME280;4665;51.368;6.782;2023-03-03T15:05:52;102165.25;;;5.55;100.00
9257;BME280;4665;51.368;6.782;2023-03-03T15:08:29;102148.78;;;5.49;100.00
9257;BME280;4665;51.368;6.782;2023-03-03T15:11:11;102153.72;;;5.56;100.00
9257;BME280;4665;51.368;6.782;2023-03-03T15:13:37;102163.25;;;5.58;100.00
9257;BME280;4665;51.368;6.782;2023-03-03T15:16:23;102153.38;;;5.62;100.00
9257;BME280;4665;51.368;6.782;2023-03-03T15:19:17;102157.44;;;5.67;100.00
9257;BME280;4665;51.368;6.782;2023-03-03T15:21:58;102151.38;;;5.65;100.00
9257;BME280;4665;51.368;6.782;2023-03-03T15:24:36;102149.25;;;5.72;100.00
9257;BME280;4665;51.368;6.782;2023-03-03T15:27:20;102144.13;;;5.69;100.00
9257;BME280;4665;51.368;6.782;2023-03-03T15:32:45;102139.88;;;5.66;100.00
9257;BME280;4665;51.368;6.782;2023-03-03T15:38:28;102134.41;;;5.69;100.00
9257;BME280;4665;51.368;6.782;2023-03-03T15:44:23;102122.78;;;5.72;100.00
9257;BME280;4665;51.368;6.782;2023-03-03T16:03:52;102116.19;;;5.49;100.00
9257;BME280;4665;51.368;6.782;2023-03-03T16:11:43;102120.34;;;5.23;100.00
9257;BME280;4665;51.368;6.782;2023-03-03T16:19:37;102125.47;;;5.10;100.00
9257;BME280;4665;51.368;6.782;2023-03-03T16:22:17;102120.03;;;5.13;100.00
9257;BME280;4665;51.368;6.782;2023-03-03T16:28:23;102127.34;;;5.08;100.00
9257;BME280;4665;51.368;6.782;2023-03-03T16:33:38;102128.72;;;4.99;100.00
9257;BME280;4665;51.368;6.782;2023-03-03T16:38:53;102126.00;;;4.85;100.00
9257;BME280;4665;51.368;6.782;2023-03-03T16:41:31;102121.47;;;4.71;100.00
9257;BME280;4665;51.368;6.782;2023-03-03T16:44:28;102128.38;;;4.74;100.00
9257;BME280;4665;51.368;6.782;2023-03-03T16:47:11;102138.41;;;4.67;100.00
9257;BME280;4665;51.368;6.782;2023-03-03T16:53:16;102134.66;;;4.55;100.00
9257;BME280;4665;51.368;6.782;2023-03-03T16:55:24;102138.63;;;4.47;100.00
9257;BME280;4665;51.368;6.782;2023-03-03T16:58:14;102133.41;;;4.45;100.00
9257;BME280;4665;51.368;6.782;2023-03-03T17:01:09;102132.22;;;4.35;100.00
9257;BME280;4665;51.368;6.782;2023-03-03T17:06:48;102149.13;;;4.31;100.00
9257;BME280;4665;51.368;6.782;2023-03-03T17:18:01;102153.91;;;4.07;100.00
9257;BME280;4665;51.368;6.782;2023-03-03T17:20:38;102152.34;;;4.03;100.00
9257;BME280;4665;51.368;6.782;2023-03-03T17:37:39;102169.84;;;3.51;100.00
9257;BME280;4665;51.368;6.782;2023-03-03T17:46:12;102177.47;;;3.21;100.00
9257;BME280;4665;51.368;6.782;2023-03-03T17:51:46;102194.59;;;3.11;100.00
9257;BME280;4665;51.368;6.782;2023-03-03T17:57:37;102199.88;;;2.92;100.00
9257;BME280;4665;51.368;6.782;2023-03-03T18:03:07;102189.91;;;2.80;100.00
9257;BME280;4665;51.368;6.782;2023-03-03T18:22:06;102200.09;;;2.48;100.00
9257;BME280;4665;51.368;6.782;2023-03-03T18:32:46;102196.22;;;2.36;100.00
9257;BME280;4665;51.368;6.782;2023-03-03T18:35:33;102192.94;;;2.31;100.00
9257;BME280;4665;51.368;6.782;2023-03-03T18:40:51;102203.47;;;2.31;100.00
9257;BME280;4665;51.368;6.782;2023-03-03T18:46:04;102202.88;;;2.24;100.00
9257;BME280;4665;51.368;6.782;2023-03-03T18:51:11;102214.25;;;2.25;100.00
9257;BME280;4665;51.368;6.782;2023-03-03T18:53:36;102217.81;;;2.24;100.00
9257;BME280;4665;51.368;6.782;2023-03-03T18:56:08;102203.16;;;2.18;100.00
9257;BME280;4665;51.368;6.782;2023-03-03T18:58:39;102199.66;;;2.18;100.00
9257;BME280;4665;51.368;6.782;2023-03-03T19:09:04;102237.53;;;2.34;100.00